sensor_id;sensor_type;location;lat;lon;timestamp;P1;durP1;ratioP1;P2;durP2;ratioP2
22606;SDS011;11470;20.968;105.834;2023-06-01T00:00:07;23.10;;;15.88;;
22606;SDS011;11470;20.968;105.834;2023-06-01T00:05:16;29.13;;;16.42;;
22606;SDS011;11470;20.968;105.834;2023-06-01T00:10:21;21.45;;;14.55;;
22606;SDS011;11470;20.968;105.834;2023-06-01T00:15:27;31.13;;;20.02;;
22606;SDS011;11470;20.968;105.834;2023-06-01T00:20:32;33.13;;;20.27;;
22606;SDS011;11470;20.968;105.834;2023-06-01T00:25:37;20.70;;;14.70;;
22606;SDS011;11470;20.968;105.834;2023-06-01T00:30:42;26.83;;;15.45;;
22606;SDS011;11470;20.968;105.834;2023-06-01T00:35:48;20.88;;;14.38;;
22606;SDS011;11470;20.968;105.834;2023-06-01T00:40:54;21.88;;;13.98;;
22606;SDS011;11470;20.968;105.834;2023-06-01T00:46:01;29.77;;;18.15;;
22606;SDS011;11470;20.968;105.834;2023-06-01T00:51:07;29.10;;;15.63;;
22606;SDS011;11470;20.968;105.834;2023-06-01T00:56:12;21.95;;;13.40;;
22606;SDS011;11470;20.968;105.834;2023-06-01T01:01:20;28.98;;;17.13;;
22606;SDS011;11470;20.968;105.834;2023-06-01T01:06:36;27.90;;;15.63;;
22606;SDS011;11470;20.968;105.834;2023-06-01T01:17:22;32.00;;;16.45;;
22606;SDS011;11470;20.968;105.834;2023-06-01T01:22:47;25.80;;;15.77;;
22606;SDS011;11470;20.968;105.834;2023-06-01T01:33:53;27.30;;;17.50;;
22606;SDS011;11470;20.968;105.834;2023-06-01T01:39:01;28.33;;;14.98;;
22606;SDS011;11470;20.968;105.834;2023-06-01T01:44:10;22.15;;;14.65;;
22606;SDS011;11470;20.968;105.834;2023-06-01T01:49:18;18.98;;;15.50;;
22606;SDS011;11470;20.968;105.834;2023-06-01T01:54:31;24.95;;;14.52;;
22606;SDS011;11470;20.968;105.834;2023-06-01T01:59:40;27.50;;;18.35;;
22606;SDS011;11470;20.968;105.834;2023-06-01T02:04:50;26.60;;;20.40;;
22606;SDS011;11470;20.968;105.834;2023-06-01T02:09:59;22.88;;;15.25;;
22606;SDS011;11470;20.968;105.834;2023-06-01T02:15:07;32.78;;;22.85;;
22606;SDS011;11470;20.968;105.834;2023-06-01T02:20:13;34.92;;;22.17;;
22606;SDS011;11470;20.968;105.834;2023-06-01T02:25:42;28.70;;;21.83;;
22606;SDS011;11470;20.968;105.834;2023-06-01T02:30:48;20.90;;;16.08;;
22606;SDS011;11470;20.968;105.834;2023-06-01T02:35:56;40.10;;;28.67;;
22606;SDS011;11470;20.968;105.834;2023-06-01T02:41:02;24.33;;;17.38;;
22606;SDS011;11470;20.968;105.834;2023-06-01T02:46:10;19.55;;;14.40;;
22606;SDS011;11470;20.968;105.834;2023-06-01T02:51:16;24.73;;;17.85;;
22606;SDS011;11470;20.968;105.834;2023-06-01T02:56:34;24.98;;;18.83;;
22606;SDS011;11470;20.968;105.834;2023-06-01T03:01:42;23.58;;;17.63;;
22606;SDS011;11470;20.968;105.834;2023-06-01T03:06:49;23.02;;;15.10;;
22606;SDS011;11470;20.968;105.834;2023-06-01T03:12:21;35.33;;;26.35;;
22606;SDS011;11470;20.968;105.834;2023-06-01T03:22:37;34.35;;;25.67;;
22606;SDS011;11470;20.968;105.834;2023-06-01T03:27:46;26.10;;;20.48;;
22606;SDS011;11470;20.968;105.834;2023-06-01T03:32:52;29.25;;;23.30;;
22606;SDS011;11470;20.968;105.834;2023-06-01T03:37:57;29.05;;;23.58;;
22606;SDS011;11470;20.968;105.834;2023-06-01T03:43:06;33.67;;;26.45;;
22606;SDS011;11470;20.968;105.834;2023-06-01T03:48:12;31.75;;;25.10;;
22606;SDS011;11470;20.968;105.834;2023-06-01T03:58:59;34.53;;;25.75;;
22606;SDS011;11470;20.968;105.834;2023-06-01T04:04:06;31.90;;;25.77;;
22606;SDS011;11470;20.968;105.834;2023-06-01T04:09:12;36.92;;;29.95;;
22606;SDS011;11470;20.968;105.834;2023-06-01T04:14:22;33.20;;;26.00;;
22606;SDS011;11470;20.968;105.834;2023-06-01T04:19:29;32.45;;;24.58;;
22606;SDS011;11470;20.968;105.834;2023-06-01T04:24:40;31.67;;;27.08;;
22606;SDS011;11470;20.968;105.834;2023-06-01T04:29:46;32.75;;;27.70;;
22606;SDS011;11470;20.968;105.834;2023-06-01T04:34:54;33.85;;;25.02;;
22606;SDS011;11470;20.968;105.834;2023-06-01T04:40:01;31.25;;;27.08;;
22606;SDS011;11470;20.968;105.834;2023-06-01T04:45:14;26.95;;;23.75;;
22606;SDS011;11470;20.968;105.834;2023-06-01T04:50:20;31.60;;;25.75;;
22606;SDS011;11470;20.968;105.834;2023-06-01T04:55:27;32.90;;;25.10;;
22606;SDS011;11470;20.968;105.834;2023-06-01T05:00:34;35.05;;;23.75;;
22606;SDS011;11470;20.968;105.834;2023-06-01T05:05:39;28.55;;;22.55;;
22606;SDS011;11470;20.968;105.834;2023-06-01T05:10:45;33.60;;;25.45;;
22606;SDS011;11470;20.968;105.834;2023-06-01T05:15:51;32.30;;;25.88;;
22606;SDS011;11470;20.968;105.834;2023-06-01T05:21:00;31.13;;;24.55;;
22606;SDS011;11470;20.968;105.834;2023-06-01T05:26:07;31.27;;;21.55;;
22606;SDS011;11470;20.968;105.834;2023-06-01T05:31:12;26.13;;;22.60;;
22606;SDS011;11470;20.968;105.834;2023-06-01T05:36:22;31.40;;;24.92;;
22606;SDS011;11470;20.968;105.834;2023-06-01T05:41:28;23.08;;;16.38;;
22606;SDS011;11470;20.968;105.834;2023-06-01T05:46:34;25.52;;;17.95;;
22606;SDS011;11470;20.968;105.834;2023-06-01T05:51:39;31.75;;;23.92;;
22606;SDS011;11470;20.968;105.834;2023-06-01T05:56:47;19.48;;;14.90;;
22606;SDS011;11470;20.968;105.834;2023-06-01T06:01:53;26.73;;;21.40;;
22606;SDS011;11470;20.968;105.834;2023-06-01T06:06:59;23.48;;;17.73;;
22606;SDS011;11470;20.968;105.834;2023-06-01T06:12:05;22.63;;;14.40;;
22606;SDS011;11470;20.968;105.834;2023-06-01T06:17:14;18.48;;;13.55;;
22606;SDS011;11470;20.968;105.834;2023-06-01T06:22:20;25.80;;;22.05;;
22606;SDS011;11470;20.968;105.834;2023-06-01T06:27:25;19.75;;;14.85;;
22606;SDS011;11470;20.968;105.834;2023-06-01T06:32:34;24.52;;;18.42;;
22606;SDS011;11470;20.968;105.834;2023-06-01T06:37:39;20.48;;;15.02;;
22606;SDS011;11470;20.968;105.834;2023-06-01T06:42:45;21.15;;;14.25;;
22606;SDS011;11470;20.968;105.834;2023-06-01T06:47:51;29.13;;;18.67;;
22606;SDS011;11470;20.968;105.834;2023-06-01T06:52:57;23.27;;;18.42;;
22606;SDS011;11470;20.968;105.834;2023-06-01T06:58:03;19.70;;;14.07;;
22606;SDS011;11470;20.968;105.834;2023-06-01T07:03:12;21.40;;;17.80;;
22606;SDS011;11470;20.968;105.834;2023-06-01T07:08:20;19.45;;;13.75;;
22606;SDS011;11470;20.968;105.834;2023-06-01T07:13:40;21.90;;;15.38;;
22606;SDS011;11470;20.968;105.834;2023-06-01T07:18:45;20.92;;;13.85;;
22606;SDS011;11470;20.968;105.834;2023-06-01T07:23:50;19.38;;;12.82;;
22606;SDS011;11470;20.968;105.834;2023-06-01T07:28:56;19.20;;;14.30;;
22606;SDS011;11470;20.968;105.834;2023-06-01T07:34:03;19.08;;;12.85;;
22606;SDS011;11470;20.968;105.834;2023-06-01T07:39:09;21.00;;;13.38;;
22606;SDS011;11470;20.968;105.834;2023-06-01T07:44:15;17.05;;;14.50;;
22606;SDS011;11470;20.968;105.834;2023-06-01T07:49:24;15.73;;;11.40;;
22606;SDS011;11470;20.968;105.834;2023-06-01T07:54:31;17.45;;;11.00;;
22606;SDS011;11470;20.968;105.834;2023-06-01T07:59:38;16.40;;;12.60;;
22606;SDS011;11470;20.968;105.834;2023-06-01T08:04:47;18.48;;;11.43;;
22606;SDS011;11470;20.968;105.834;2023-06-01T08:09:59;16.10;;;10.82;;
22606;SDS011;11470;20.968;105.834;2023-06-01T08:15:06;19.55;;;10.80;;
22606;SDS011;11470;20.968;105.834;2023-06-01T08:20:12;13.63;;;11.95;;
22606;SDS011;11470;20.968;105.834;2023-06-01T08:25:20;11.80;;;10.48;;
22606;SDS011;11470;20.968;105.834;2023-06-01T08:30:27;16.98;;;12.32;;
22606;SDS011;11470;20.968;105.834;2023-06-01T08:35:32;19.38;;;13.77;;
22606;SDS011;11470;20.968;105.834;2023-06-01T08:40:42;18.05;;;10.93;;
22606;SDS011;11470;20.968;105.834;2023-06-01T08:45:48;16.27;;;11.18;;
22606;SDS011;11470;20.968;105.834;2023-06-01T08:50:57;16.80;;;12.57;;
22606;SDS011;11470;20.968;105.834;2023-06-01T08:56:05;14.25;;;10.27;;
22606;SDS011;11470;20.968;105.834;2023-06-01T09:01:12;15.13;;;13.40;;
22606;SDS011;11470;20.968;105.834;2023-06-01T09:06:22;20.02;;;14.48;;
22606;SDS011;11470;20.968;105.834;2023-06-01T09:11:31;23.98;;;15.27;;
22606;SDS011;11470;20.968;105.834;2023-06-01T09:16:37;18.83;;;14.73;;
22606;SDS011;11470;20.968;105.834;2023-06-01T09:21:54;19.55;;;16.08;;
22606;SDS011;11470;20.968;105.834;2023-06-01T09:27:01;17.73;;;15.20;;
22606;SDS011;11470;20.968;105.834;2023-06-01T09:32:08;22.10;;;17.33;;
22606;SDS011;11470;20.968;105.834;2023-06-01T09:37:25;15.18;;;12.38;;
22606;SDS011;11470;20.968;105.834;2023-06-01T09:42:34;20.38;;;15.95;;
22606;SDS011;11470;20.968;105.834;2023-06-01T09:48:18;25.73;;;20.23;;
22606;SDS011;11470;20.968;105.834;2023-06-01T09:53:25;26.13;;;20.85;;
22606;SDS011;11470;20.968;105.834;2023-06-01T09:58:30;20.80;;;17.10;;
22606;SDS011;11470;20.968;105.834;2023-06-01T10:03:42;25.73;;;20.73;;
22606;SDS011;11470;20.968;105.834;2023-06-01T10:08:49;33.00;;;23.92;;
22606;SDS011;11470;20.968;105.834;2023-06-01T10:13:55;30.08;;;19.23;;
22606;SDS011;11470;20.968;105.834;2023-06-01T10:19:05;26.55;;;19.73;;
22606;SDS011;11470;20.968;105.834;2023-06-01T10:24:14;25.95;;;17.95;;
22606;SDS011;11470;20.968;105.834;2023-06-01T10:29:21;27.65;;;20.95;;
22606;SDS011;11470;20.968;105.834;2023-06-01T10:34:42;24.83;;;19.30;;
22606;SDS011;11470;20.968;105.834;2023-06-01T10:39:48;30.75;;;23.13;;
22606;SDS011;11470;20.968;105.834;2023-06-01T10:44:54;29.27;;;19.92;;
22606;SDS011;11470;20.968;105.834;2023-06-01T11:00:14;37.95;;;24.40;;
22606;SDS011;11470;20.968;105.834;2023-06-01T11:21:26;33.00;;;23.13;;
22606;SDS011;11470;20.968;105.834;2023-06-01T11:26:40;35.80;;;25.25;;
22606;SDS011;11470;20.968;105.834;2023-06-01T11:36:59;38.63;;;27.60;;
22606;SDS011;11470;20.968;105.834;2023-06-01T11:42:08;40.63;;;28.80;;
22606;SDS011;11470;20.968;105.834;2023-06-01T11:47:17;33.25;;;22.65;;
22606;SDS011;11470;20.968;105.834;2023-06-01T11:52:22;46.47;;;32.38;;
22606;SDS011;11470;20.968;105.834;2023-06-01T11:57:28;37.28;;;27.08;;
22606;SDS011;11470;20.968;105.834;2023-06-01T12:02:33;47.50;;;28.95;;
22606;SDS011;11470;20.968;105.834;2023-06-01T12:07:50;38.00;;;26.05;;
22606;SDS011;11470;20.968;105.834;2023-06-01T12:12:57;42.15;;;27.38;;
22606;SDS011;11470;20.968;105.834;2023-06-01T12:18:03;42.55;;;27.80;;
22606;SDS011;11470;20.968;105.834;2023-06-01T12:28:19;37.85;;;26.23;;
22606;SDS011;11470;20.968;105.834;2023-06-01T12:33:33;48.22;;;30.17;;
22606;SDS011;11470;20.968;105.834;2023-06-01T12:38:58;50.10;;;34.03;;
22606;SDS011;11470;20.968;105.834;2023-06-01T12:44:09;57.95;;;38.08;;
22606;SDS011;11470;20.968;105.834;2023-06-01T12:49:24;69.53;;;42.10;;
22606;SDS011;11470;20.968;105.834;2023-06-01T12:54:30;70.15;;;44.40;;
22606;SDS011;11470;20.968;105.834;2023-06-01T12:59:40;73.18;;;45.75;;
22606;SDS011;11470;20.968;105.834;2023-06-01T13:04:46;58.97;;;38.15;;
22606;SDS011;11470;20.968;105.834;2023-06-01T13:09:52;64.95;;;41.00;;
22606;SDS011;11470;20.968;105.834;2023-06-01T13:14:57;61.70;;;40.67;;
22606;SDS011;11470;20.968;105.834;2023-06-01T13:20:03;55.58;;;37.17;;
22606;SDS011;11470;20.968;105.834;2023-06-01T13:25:11;54.65;;;36.95;;
22606;SDS011;11470;20.968;105.834;2023-06-01T13:30:18;55.40;;;36.05;;
22606;SDS011;11470;20.968;105.834;2023-06-01T13:35:24;61.13;;;39.40;;
22606;SDS011;11470;20.968;105.834;2023-06-01T13:40:49;58.92;;;36.42;;
22606;SDS011;11470;20.968;105.834;2023-06-01T13:46:04;56.25;;;37.33;;
22606;SDS011;11470;20.968;105.834;2023-06-01T13:51:11;57.92;;;38.88;;
22606;SDS011;11470;20.968;105.834;2023-06-01T13:56:17;59.53;;;37.78;;
22606;SDS011;11470;20.968;105.834;2023-06-01T14:01:25;63.85;;;36.67;;
22606;SDS011;11470;20.968;105.834;2023-06-01T14:06:30;49.88;;;32.92;;
22606;SDS011;11470;20.968;105.834;2023-06-01T14:11:38;53.15;;;33.42;;
22606;SDS011;11470;20.968;105.834;2023-06-01T14:16:43;48.03;;;31.92;;
22606;SDS011;11470;20.968;105.834;2023-06-01T14:21:49;51.67;;;28.63;;
22606;SDS011;11470;20.968;105.834;2023-06-01T14:26:54;49.67;;;31.02;;
22606;SDS011;11470;20.968;105.834;2023-06-01T14:32:01;37.25;;;17.40;;
22606;SDS011;11470;20.968;105.834;2023-06-01T14:37:06;41.22;;;25.60;;
22606;SDS011;11470;20.968;105.834;2023-06-01T14:42:16;44.40;;;26.52;;
22606;SDS011;11470;20.968;105.834;2023-06-01T14:47:27;40.42;;;24.42;;
22606;SDS011;11470;20.968;105.834;2023-06-01T14:52:33;34.40;;;20.83;;
22606;SDS011;11470;20.968;105.834;2023-06-01T14:57:47;34.22;;;18.58;;
22606;SDS011;11470;20.968;105.834;2023-06-01T15:08:04;30.25;;;15.45;;
22606;SDS011;11470;20.968;105.834;2023-06-01T15:13:11;43.60;;;22.83;;
22606;SDS011;11470;20.968;105.834;2023-06-01T15:18:19;60.35;;;32.63;;
22606;SDS011;11470;20.968;105.834;2023-06-01T15:23:28;66.68;;;39.50;;
22606;SDS011;11470;20.968;105.834;2023-06-01T15:28:33;70.70;;;44.00;;
22606;SDS011;11470;20.968;105.834;2023-06-01T15:33:39;57.85;;;30.33;;
22606;SDS011;11470;20.968;105.834;2023-06-01T15:38:45;65.68;;;40.45;;
22606;SDS011;11470;20.968;105.834;2023-06-01T15:43:50;55.70;;;34.75;;
22606;SDS011;11470;20.968;105.834;2023-06-01T15:48:58;58.83;;;41.85;;
22606;SDS011;11470;20.968;105.834;2023-06-01T15:54:07;60.05;;;37.13;;
22606;SDS011;11470;20.968;105.834;2023-06-01T15:59:14;56.20;;;35.58;;
22606;SDS011;11470;20.968;105.834;2023-06-01T16:04:20;54.25;;;35.50;;
22606;SDS011;11470;20.968;105.834;2023-06-01T16:09:26;61.13;;;40.15;;
22606;SDS011;11470;20.968;105.834;2023-06-01T16:14:31;56.93;;;36.50;;
22606;SDS011;11470;20.968;105.834;2023-06-01T16:19:38;58.92;;;37.05;;
22606;SDS011;11470;20.968;105.834;2023-06-01T16:24:47;56.45;;;36.17;;
22606;SDS011;11470;20.968;105.834;2023-06-01T16:29:56;54.47;;;33.63;;
22606;SDS011;11470;20.968;105.834;2023-06-01T16:35:02;49.33;;;31.80;;
22606;SDS011;11470;20.968;105.834;2023-06-01T16:40:10;49.88;;;31.58;;
22606;SDS011;11470;20.968;105.834;2023-06-01T16:45:18;47.97;;;31.23;;
22606;SDS011;11470;20.968;105.834;2023-06-01T16:50:23;44.95;;;29.27;;
22606;SDS011;11470;20.968;105.834;2023-06-01T16:55:29;42.42;;;29.30;;
22606;SDS011;11470;20.968;105.834;2023-06-01T17:00:41;43.90;;;29.77;;
22606;SDS011;11470;20.968;105.834;2023-06-01T17:05:47;42.08;;;27.20;;
22606;SDS011;11470;20.968;105.834;2023-06-01T17:10:52;44.08;;;28.52;;
22606;SDS011;11470;20.968;105.834;2023-06-01T17:15:58;36.33;;;25.73;;
22606;SDS011;11470;20.968;105.834;2023-06-01T17:21:03;37.85;;;26.60;;
22606;SDS011;11470;20.968;105.834;2023-06-01T17:26:10;41.85;;;28.85;;
22606;SDS011;11470;20.968;105.834;2023-06-01T17:31:15;44.03;;;26.98;;
22606;SDS011;11470;20.968;105.834;2023-06-01T17:41:25;41.70;;;25.92;;
22606;SDS011;11470;20.968;105.834;2023-06-01T17:46:34;41.30;;;26.42;;
22606;SDS011;11470;20.968;105.834;2023-06-01T17:51:40;39.20;;;26.83;;
22606;SDS011;11470;20.968;105.834;2023-06-01T17:56:46;37.40;;;25.90;;
22606;SDS011;11470;20.968;105.834;2023-06-01T18:01:52;42.35;;;25.52;;
22606;SDS011;11470;20.968;105.834;2023-06-01T18:06:58;45.05;;;26.75;;
22606;SDS011;11470;20.968;105.834;2023-06-01T18:12:03;38.33;;;25.50;;
22606;SDS011;11470;20.968;105.834;2023-06-01T18:17:09;41.20;;;27.05;;
22606;SDS011;11470;20.968;105.834;2023-06-01T18:22:15;35.78;;;24.90;;
22606;SDS011;11470;20.968;105.834;2023-06-01T18:27:23;43.92;;;26.95;;
22606;SDS011;11470;20.968;105.834;2023-06-01T18:32:34;43.67;;;25.77;;
22606;SDS011;11470;20.968;105.834;2023-06-01T18:37:40;38.83;;;24.58;;
22606;SDS011;11470;20.968;105.834;2023-06-01T18:47:53;35.67;;;23.15;;
22606;SDS011;11470;20.968;105.834;2023-06-01T18:52:59;36.85;;;23.00;;
22606;SDS011;11470;20.968;105.834;2023-06-01T18:58:04;32.85;;;22.30;;
22606;SDS011;11470;20.968;105.834;2023-06-01T19:03:11;31.02;;;20.73;;
22606;SDS011;11470;20.968;105.834;2023-06-01T19:08:19;36.33;;;22.27;;
22606;SDS011;11470;20.968;105.834;2023-06-01T19:13:34;32.72;;;20.73;;
22606;SDS011;11470;20.968;105.834;2023-06-01T19:18:46;29.75;;;19.13;;
22606;SDS011;11470;20.968;105.834;2023-06-01T19:23:54;29.40;;;19.65;;
22606;SDS011;11470;20.968;105.834;2023-06-01T19:29:06;30.67;;;20.52;;
22606;SDS011;11470;20.968;105.834;2023-06-01T19:34:16;30.92;;;20.20;;
22606;SDS011;11470;20.968;105.834;2023-06-01T19:39:25;27.15;;;18.35;;
22606;SDS011;11470;20.968;105.834;2023-06-01T19:44:33;30.63;;;19.73;;
22606;SDS011;11470;20.968;105.834;2023-06-01T19:49:39;28.75;;;19.92;;
22606;SDS011;11470;20.968;105.834;2023-06-01T19:54:46;29.90;;;20.10;;
22606;SDS011;11470;20.968;105.834;2023-06-01T19:59:51;34.63;;;21.65;;
22606;SDS011;11470;20.968;105.834;2023-06-01T20:05:04;27.63;;;20.48;;
22606;SDS011;11470;20.968;105.834;2023-06-01T20:10:17;29.95;;;21.35;;
22606;SDS011;11470;20.968;105.834;2023-06-01T20:15:29;28.35;;;20.10;;
22606;SDS011;11470;20.968;105.834;2023-06-01T20:20:37;25.58;;;18.88;;
22606;SDS011;11470;20.968;105.834;2023-06-01T20:25:45;25.30;;;17.20;;
22606;SDS011;11470;20.968;105.834;2023-06-01T20:36:08;30.55;;;22.63;;
22606;SDS011;11470;20.968;105.834;2023-06-01T20:41:14;23.75;;;17.77;;
22606;SDS011;11470;20.968;105.834;2023-06-01T20:46:27;27.15;;;20.33;;
22606;SDS011;11470;20.968;105.834;2023-06-01T20:51:36;28.73;;;20.67;;
22606;SDS011;11470;20.968;105.834;2023-06-01T20:56:49;30.42;;;23.45;;
22606;SDS011;11470;20.968;105.834;2023-06-01T21:01:57;37.08;;;27.17;;
22606;SDS011;11470;20.968;105.834;2023-06-01T21:07:14;25.42;;;18.63;;
22606;SDS011;11470;20.968;105.834;2023-06-01T21:12:20;26.17;;;19.35;;
22606;SDS011;11470;20.968;105.834;2023-06-01T21:17:25;25.50;;;20.20;;
22606;SDS011;11470;20.968;105.834;2023-06-01T21:22:31;45.38;;;33.58;;
22606;SDS011;11470;20.968;105.834;2023-06-01T21:27:37;42.42;;;31.52;;
22606;SDS011;11470;20.968;105.834;2023-06-01T21:32:43;31.42;;;25.23;;
22606;SDS011;11470;20.968;105.834;2023-06-01T21:37:48;32.22;;;24.23;;
22606;SDS011;11470;20.968;105.834;2023-06-01T21:42:54;35.88;;;27.58;;
22606;SDS011;11470;20.968;105.834;2023-06-01T21:48:00;32.10;;;23.77;;
22606;SDS011;11470;20.968;105.834;2023-06-01T21:53:07;28.30;;;21.05;;
22606;SDS011;11470;20.968;105.834;2023-06-01T21:58:13;33.80;;;25.40;;
22606;SDS011;11470;20.968;105.834;2023-06-01T22:03:21;23.98;;;19.77;;
22606;SDS011;11470;20.968;105.834;2023-06-01T22:08:28;25.55;;;19.17;;
22606;SDS011;11470;20.968;105.834;2023-06-01T22:13:34;32.92;;;23.27;;
22606;SDS011;11470;20.968;105.834;2023-06-01T22:18:43;25.90;;;21.55;;
22606;SDS011;11470;20.968;105.834;2023-06-01T22:23:49;25.73;;;20.33;;
22606;SDS011;11470;20.968;105.834;2023-06-01T22:28:55;32.72;;;24.58;;
22606;SDS011;11470;20.968;105.834;2023-06-01T22:34:01;24.65;;;20.55;;
22606;SDS011;11470;20.968;105.834;2023-06-01T22:39:07;39.88;;;27.52;;
22606;SDS011;11470;20.968;105.834;2023-06-01T22:44:12;28.35;;;23.27;;
22606;SDS011;11470;20.968;105.834;2023-06-01T22:49:17;30.60;;;23.08;;
22606;SDS011;11470;20.968;105.834;2023-06-01T22:54:29;26.45;;;21.48;;
22606;SDS011;11470;20.968;105.834;2023-06-01T22:59:34;29.63;;;21.85;;
22606;SDS011;11470;20.968;105.834;2023-06-01T23:04:40;37.97;;;26.67;;
22606;SDS011;11470;20.968;105.834;2023-06-01T23:09:48;26.70;;;21.88;;
22606;SDS011;11470;20.968;105.834;2023-06-01T23:14:55;30.95;;;23.20;;
22606;SDS011;11470;20.968;105.834;2023-06-01T23:20:01;35.13;;;26.77;;
22606;SDS011;11470;20.968;105.834;2023-06-01T23:25:12;24.23;;;20.58;;
22606;SDS011;11470;20.968;105.834;2023-06-01T23:30:18;30.70;;;24.23;;
22606;SDS011;11470;20.968;105.834;2023-06-01T23:35:25;29.13;;;22.98;;
22606;SDS011;11470;20.968;105.834;2023-06-01T23:40:34;24.73;;;20.70;;
22606;SDS011;11470;20.968;105.834;2023-06-01T23:45:39;36.50;;;25.33;;
22606;SDS011;11470;20.968;105.834;2023-06-01T23:50:44;33.53;;;24.02;;
22606;SDS011;11470;20.968;105.834;2023-06-01T23:55:50;41.28;;;29.65;;
